createdAt,value
2023-03-02T00:01:31.307Z,37.78
2023-03-02T00:04:00.838Z,36.50
2023-03-02T00:06:31.120Z,38.30
2023-03-02T00:09:03.217Z,35.45
2023-03-02T00:13:58.332Z,40.85
2023-03-02T00:16:25.793Z,35.17
2023-03-02T00:18:53.056Z,36.08
2023-03-02T00:21:20.386Z,36.13
2023-03-02T00:23:47.622Z,39.10
2023-03-02T00:26:14.901Z,35.53
2023-03-02T00:28:42.181Z,32.72
2023-03-02T00:31:09.576Z,32.75
2023-03-02T00:33:36.850Z,37.67
2023-03-02T00:36:04.373Z,36.70
2023-03-02T00:38:31.722Z,31.30
2023-03-02T00:40:59.511Z,35.65
2023-03-02T00:43:28.215Z,37.08
2023-03-02T00:45:55.657Z,34.33
2023-03-02T00:48:23.375Z,33.85
2023-03-02T00:50:50.775Z,29.92
2023-03-02T00:53:18.216Z,32.53
2023-03-02T00:55:54.543Z,31.35
2023-03-02T00:58:23.398Z,32.90
2023-03-02T01:00:50.925Z,30.40
2023-03-02T01:03:19.237Z,38.50
2023-03-02T01:05:47.820Z,32.33
2023-03-02T01:08:15.317Z,39.92
2023-03-02T01:10:42.574Z,33.65
2023-03-02T01:13:09.766Z,36.33
2023-03-02T01:15:38.159Z,32.15
2023-03-02T01:18:05.779Z,32.15
2023-03-02T01:20:33.118Z,30.33
2023-03-02T01:23:00.413Z,35.90
2023-03-02T01:25:27.713Z,31.67
2023-03-02T01:27:55.480Z,32.80
2023-03-02T01:30:22.750Z,33.40
2023-03-02T01:32:49.998Z,32.25
2023-03-02T01:35:17.282Z,36.22
2023-03-02T01:37:44.487Z,32.78
2023-03-02T01:40:14.602Z,37.88
2023-03-02T01:42:50.995Z,38.13
2023-03-02T01:45:54.002Z,31.55
2023-03-02T01:49:04.691Z,34.97
2023-03-02T01:51:52.662Z,40.83
2023-03-02T01:54:25.331Z,35.92
2023-03-02T01:57:04.019Z,33.38
2023-03-02T01:59:33.068Z,30.35
2023-03-02T02:02:02.959Z,35.65
2023-03-02T02:04:31.449Z,39.28
2023-03-02T02:07:03.751Z,30.17
2023-03-02T02:09:36.694Z,36.40
2023-03-02T02:12:05.922Z,32.17
2023-03-02T02:14:34.490Z,40.22
2023-03-02T02:17:02.235Z,32.92
2023-03-02T02:19:55.613Z,34.00
2023-03-02T02:22:32.751Z,30.50
2023-03-02T02:25:04.136Z,30.83
2023-03-02T02:27:34.158Z,34.97
2023-03-02T02:30:05.261Z,31.70
2023-03-02T02:32:36.489Z,38.03
2023-03-02T02:35:20.228Z,35.78
2023-03-02T02:37:58.981Z,34.50
2023-03-02T02:40:53.986Z,39.28
2023-03-02T02:43:26.518Z,33.35
2023-03-02T02:45:56.890Z,36.22
2023-03-02T02:48:31.058Z,34.55
2023-03-02T02:51:03.384Z,38.17
2023-03-02T02:53:49.793Z,34.95
2023-03-02T02:56:18.764Z,33.88
2023-03-02T02:58:52.080Z,33.85
2023-03-02T03:01:26.159Z,36.72
2023-03-02T03:04:02.744Z,30.08
2023-03-02T03:06:38.636Z,33.72
2023-03-02T03:09:07.431Z,36.17
2023-03-02T03:11:42.446Z,36.92
2023-03-02T03:14:28.139Z,33.28
2023-03-02T03:16:56.097Z,36.20
2023-03-02T03:19:25.356Z,33.92
2023-03-02T03:21:59.611Z,35.63
2023-03-02T03:24:31.897Z,36.92
2023-03-02T03:27:00.597Z,36.05
2023-03-02T03:29:29.518Z,36.75
2023-03-02T03:34:29.319Z,34.88
2023-03-02T03:37:01.936Z,36.25
2023-03-02T03:39:33.675Z,41.58
2023-03-02T03:42:01.239Z,37.50
2023-03-02T03:44:29.028Z,36.97
2023-03-02T03:46:56.441Z,37.00
2023-03-02T03:49:24.410Z,35.47
2023-03-02T03:51:51.827Z,37.40
2023-03-02T03:54:19.593Z,33.40
2023-03-02T03:56:49.328Z,32.88
2023-03-02T03:59:20.692Z,35.50
2023-03-02T04:01:58.640Z,35.20
2023-03-02T04:04:32.514Z,36.25
2023-03-02T04:07:00.948Z,36.42
2023-03-02T04:09:32.316Z,39.67
2023-03-02T04:12:00.021Z,36.40
2023-03-02T04:14:28.067Z,34.42
2023-03-02T04:16:56.648Z,34.20
2023-03-02T04:19:25.151Z,33.92
2023-03-02T04:21:56.168Z,42.03
2023-03-02T04:24:24.943Z,34.05
2023-03-02T04:26:55.250Z,35.10
2023-03-02T04:29:23.431Z,40.38
2023-03-02T04:31:51.466Z,40.85
2023-03-02T04:34:20.231Z,37.78
2023-03-02T04:36:48.294Z,36.20
2023-03-02T04:39:16.801Z,40.33
2023-03-02T04:41:48.142Z,36.38
2023-03-02T04:44:16.715Z,40.38
2023-03-02T04:46:44.963Z,36.17
2023-03-02T04:49:13.949Z,40.13
2023-03-02T04:51:43.315Z,39.28
2023-03-02T04:54:22.970Z,39.83
2023-03-02T04:56:51.762Z,40.17
2023-03-02T04:59:22.595Z,42.08
2023-03-02T05:01:50.491Z,42.83
2023-03-02T05:04:18.497Z,40.45
2023-03-02T05:06:46.251Z,37.38
2023-03-02T05:09:13.467Z,38.38
2023-03-02T05:11:41.283Z,36.25
2023-03-02T05:14:10.646Z,37.72
2023-03-02T05:16:40.510Z,36.72
2023-03-02T05:19:11.523Z,37.22
2023-03-02T05:21:39.490Z,36.40
2023-03-02T05:24:07.177Z,36.65
2023-03-02T05:26:34.791Z,41.42
2023-03-02T05:29:02.335Z,36.97
2023-03-02T05:31:36.657Z,37.05
2023-03-02T05:34:07.279Z,37.58
2023-03-02T05:36:35.096Z,32.38
2023-03-02T05:39:02.892Z,36.13
2023-03-02T05:41:30.133Z,33.25
2023-03-02T05:43:57.424Z,38.28
2023-03-02T05:46:24.928Z,36.75
2023-03-02T05:48:52.236Z,34.28
2023-03-02T05:51:19.658Z,40.22
2023-03-02T05:53:47.167Z,39.25
2023-03-02T05:56:14.327Z,37.03
2023-03-02T05:58:41.622Z,37.15
2023-03-02T06:01:14.770Z,37.17
2023-03-02T06:03:43.406Z,38.63
2023-03-02T06:06:14.341Z,38.55
2023-03-02T06:08:43.349Z,39.58
2023-03-02T06:11:11.368Z,35.67
2023-03-02T06:13:39.265Z,32.95
2023-03-02T06:16:06.864Z,38.65
2023-03-02T06:18:34.558Z,37.22
2023-03-02T06:21:02.033Z,43.55
2023-03-02T06:23:29.621Z,35.75
2023-03-02T06:25:58.328Z,37.00
2023-03-02T06:28:26.400Z,42.60
2023-03-02T06:30:54.055Z,35.17
2023-03-02T06:33:21.680Z,37.45
2023-03-02T06:35:49.442Z,36.33
2023-03-02T06:38:17.460Z,35.55
2023-03-02T06:40:45.145Z,38.05
2023-03-02T06:43:12.464Z,40.78
2023-03-02T06:45:40.109Z,37.35
2023-03-02T06:48:07.988Z,36.58
2023-03-02T06:50:35.636Z,37.08
2023-03-02T06:53:03.186Z,33.78
2023-03-02T06:55:30.439Z,40.47
2023-03-02T06:57:57.748Z,34.92
2023-03-02T07:00:27.347Z,33.25
2023-03-02T07:02:55.967Z,33.33
2023-03-02T07:05:24.549Z,37.05
2023-03-02T07:07:52.417Z,36.55
2023-03-02T07:10:19.885Z,37.63
2023-03-02T07:12:47.066Z,40.70
2023-03-02T07:15:14.652Z,32.60
2023-03-02T07:17:44.202Z,33.70
2023-03-02T07:20:17.278Z,37.25
2023-03-02T07:22:45.226Z,34.00
2023-03-02T07:25:12.643Z,35.38
2023-03-02T07:27:40.279Z,34.03
2023-03-02T07:30:09.131Z,33.28
2023-03-02T07:32:36.541Z,38.50
2023-03-02T07:35:04.304Z,39.47
2023-03-02T07:37:31.635Z,36.53
2023-03-02T07:40:00.717Z,39.35
2023-03-02T07:42:28.294Z,34.95
2023-03-02T07:44:58.303Z,34.80
2023-03-02T07:47:25.598Z,36.22
2023-03-02T07:49:52.810Z,40.70
2023-03-02T07:52:20.124Z,37.03
2023-03-02T07:54:47.414Z,37.25
2023-03-02T07:57:16.447Z,36.05
2023-03-02T07:59:43.949Z,37.78
2023-03-02T08:02:16.322Z,34.72
2023-03-02T08:04:43.633Z,35.03
2023-03-02T08:07:10.902Z,32.70
2023-03-02T08:09:41.319Z,32.05
2023-03-02T08:12:08.738Z,34.50
2023-03-02T08:14:36.152Z,32.22
2023-03-02T08:17:05.987Z,35.60
2023-03-02T08:19:33.817Z,36.83
2023-03-02T08:22:02.051Z,33.67
2023-03-02T08:24:29.493Z,34.22
2023-03-02T08:26:59.646Z,34.00
2023-03-02T08:29:26.919Z,36.35
2023-03-02T08:31:54.376Z,32.45
2023-03-02T08:34:21.835Z,38.38
2023-03-02T08:36:49.041Z,34.92
2023-03-02T08:39:16.259Z,37.35
2023-03-02T08:41:43.477Z,30.92
2023-03-02T08:44:10.796Z,32.72
2023-03-02T08:46:37.985Z,37.03
2023-03-02T08:49:05.193Z,37.58
2023-03-02T08:51:32.775Z,35.72
2023-03-02T08:54:00.553Z,34.40
2023-03-02T08:56:31.321Z,34.45
2023-03-02T08:59:05.132Z,33.75
2023-03-02T09:01:35.407Z,39.13
2023-03-02T09:04:04.596Z,35.20
2023-03-02T09:06:34.041Z,36.28
2023-03-02T09:09:01.299Z,38.70
2023-03-02T09:11:28.684Z,32.53
2023-03-02T09:13:56.417Z,31.88
2023-03-02T09:16:27.046Z,29.75
2023-03-02T09:18:54.985Z,34.17
2023-03-02T09:21:23.025Z,30.55
2023-03-02T09:23:53.891Z,32.35
2023-03-02T09:26:21.439Z,32.97
2023-03-02T09:28:48.787Z,36.63
2023-03-02T09:31:16.128Z,32.92
2023-03-02T09:33:43.448Z,32.38
2023-03-02T09:36:21.808Z,33.33
2023-03-02T09:38:49.081Z,36.53
2023-03-02T09:41:22.117Z,31.77
2023-03-02T09:44:13.823Z,30.88
2023-03-02T09:46:44.485Z,30.55
2023-03-02T09:49:20.621Z,35.72
2023-03-02T09:52:22.036Z,31.02
2023-03-02T09:54:49.366Z,31.08
2023-03-02T09:57:23.817Z,33.90
2023-03-02T09:59:59.872Z,35.42
2023-03-02T10:02:52.940Z,31.48
2023-03-02T10:05:38.536Z,32.95
2023-03-02T10:08:06.338Z,30.17
2023-03-02T10:10:44.057Z,38.22
2023-03-02T10:13:19.910Z,43.55
2023-03-02T10:15:53.022Z,28.85
2023-03-02T10:18:27.752Z,30.10
2023-03-02T10:21:06.937Z,27.90
2023-03-02T10:23:39.996Z,26.38
2023-03-02T10:26:26.281Z,29.65
2023-03-02T10:29:00.773Z,32.72
2023-03-02T10:31:34.058Z,30.05
2023-03-02T10:34:01.473Z,27.83
2023-03-02T10:36:31.396Z,27.88
2023-03-02T10:39:00.978Z,29.48
2023-03-02T10:41:41.593Z,28.77
2023-03-02T10:44:20.995Z,29.10
2023-03-02T10:46:48.466Z,28.38
2023-03-02T10:49:36.920Z,28.60
2023-03-02T10:52:18.989Z,26.08
2023-03-02T10:57:39.555Z,28.83
2023-03-02T11:00:19.109Z,26.63
2023-03-02T11:03:03.991Z,27.88
2023-03-02T11:05:33.381Z,22.65
2023-03-02T11:08:06.531Z,27.80
2023-03-02T11:10:39.797Z,26.38
2023-03-02T11:13:37.257Z,27.10
2023-03-02T11:16:18.127Z,26.88
2023-03-02T11:18:52.637Z,28.08
2023-03-02T11:21:37.137Z,24.20
2023-03-02T11:24:26.972Z,20.52
2023-03-02T11:26:56.854Z,25.55
2023-03-02T11:29:43.985Z,22.98
2023-03-02T11:32:35.652Z,20.80
2023-03-02T11:35:22.659Z,20.25
2023-03-02T11:37:52.601Z,21.23
2023-03-02T11:40:35.957Z,20.85
2023-03-02T11:43:04.972Z,21.35
2023-03-02T11:45:38.038Z,22.23
2023-03-02T11:48:08.235Z,20.48
2023-03-02T11:50:49.106Z,20.77
2023-03-02T11:53:19.420Z,20.20
2023-03-02T11:55:50.806Z,24.20
2023-03-02T11:58:22.027Z,21.75
2023-03-02T12:00:50.214Z,22.13
2023-03-02T12:03:17.487Z,24.00
2023-03-02T12:05:51.737Z,22.85
2023-03-02T12:08:18.938Z,20.70
2023-03-02T12:11:16.568Z,20.65
2023-03-02T12:13:49.898Z,20.50
2023-03-02T12:16:24.343Z,21.13
2023-03-02T12:18:52.787Z,18.45
2023-03-02T12:21:24.465Z,18.23
2023-03-02T12:23:51.647Z,23.35
2023-03-02T12:26:24.943Z,22.40
2023-03-02T12:29:05.986Z,19.92
2023-03-02T12:31:47.102Z,23.83
2023-03-02T12:34:35.599Z,20.63
2023-03-02T12:37:15.060Z,19.33
2023-03-02T12:40:21.499Z,19.95
2023-03-02T12:43:09.746Z,17.23
2023-03-02T12:45:55.664Z,21.42
2023-03-02T12:48:41.318Z,17.00
2023-03-02T12:51:21.546Z,18.42
2023-03-02T12:53:50.588Z,16.63
2023-03-02T12:56:26.055Z,22.15
2023-03-02T12:58:54.667Z,22.70
2023-03-02T13:01:25.281Z,18.77
2023-03-02T13:03:53.692Z,20.48
2023-03-02T13:06:23.775Z,18.30
2023-03-02T13:08:54.922Z,19.52
2023-03-02T13:11:31.434Z,17.63
2023-03-02T13:14:00.692Z,13.82
2023-03-02T13:16:32.537Z,15.32
2023-03-02T13:19:03.221Z,16.92
2023-03-02T13:21:37.813Z,16.48
2023-03-02T13:24:20.732Z,19.08
2023-03-02T13:26:56.764Z,21.67
2023-03-02T13:29:27.819Z,21.13
2023-03-02T13:31:55.464Z,15.93
2023-03-02T13:34:32.787Z,15.85
2023-03-02T13:37:00.103Z,18.00
2023-03-02T13:39:30.804Z,20.70
2023-03-02T13:42:04.519Z,18.80
2023-03-02T13:44:34.570Z,17.83
2023-03-02T13:47:02.732Z,18.10
2023-03-02T13:49:37.455Z,18.15
2023-03-02T13:52:17.514Z,18.33
2023-03-02T13:54:47.314Z,14.85
2023-03-02T13:57:21.902Z,19.60
2023-03-02T13:59:49.444Z,15.70
2023-03-02T14:02:26.354Z,16.02
2023-03-02T14:04:54.258Z,15.15
2023-03-02T14:07:21.640Z,24.55
2023-03-02T14:09:49.503Z,15.00
2023-03-02T14:12:33.006Z,15.82
2023-03-02T14:15:03.376Z,15.55
2023-03-02T14:17:30.708Z,16.25
2023-03-02T14:19:57.988Z,16.08
2023-03-02T14:22:27.404Z,16.73
2023-03-02T14:24:54.637Z,14.40
2023-03-02T14:27:30.641Z,21.23
2023-03-02T14:29:58.835Z,18.98
2023-03-02T14:32:26.164Z,16.88
2023-03-02T14:34:53.429Z,12.48
2023-03-02T14:37:25.025Z,14.52
2023-03-02T14:39:55.584Z,15.18
2023-03-02T14:42:23.705Z,17.27
2023-03-02T14:44:51.989Z,17.70
2023-03-02T14:47:19.853Z,17.60
2023-03-02T14:49:49.001Z,14.90
2023-03-02T14:52:16.209Z,18.15
2023-03-02T14:54:56.002Z,17.17
2023-03-02T14:57:29.879Z,16.60
2023-03-02T15:00:00.076Z,16.10
2023-03-02T15:02:27.637Z,15.90
2023-03-02T15:04:57.428Z,13.35
2023-03-02T15:07:27.433Z,18.75
2023-03-02T15:09:58.847Z,13.50
2023-03-02T15:12:26.445Z,15.82
2023-03-02T15:14:53.853Z,11.52
2023-03-02T15:17:21.136Z,16.83
2023-03-02T15:19:48.474Z,13.23
2023-03-02T15:22:15.908Z,17.40
2023-03-02T15:24:43.130Z,15.55
2023-03-02T15:27:10.426Z,18.45
2023-03-02T15:29:37.622Z,11.55
2023-03-02T15:32:05.130Z,16.40
2023-03-02T15:34:32.429Z,18.42
2023-03-02T15:36:59.668Z,18.20
2023-03-02T15:39:26.927Z,20.25
2023-03-02T15:41:54.287Z,16.35
2023-03-02T15:44:25.261Z,17.65
2023-03-02T15:46:57.701Z,19.05
2023-03-02T15:49:28.366Z,14.38
2023-03-02T15:51:59.665Z,21.65
2023-03-02T15:54:28.360Z,15.35
2023-03-02T15:56:55.884Z,16.58
2023-03-02T15:59:28.714Z,16.38
2023-03-02T16:02:05.369Z,18.23
2023-03-02T16:04:33.883Z,15.02
2023-03-02T16:07:01.297Z,14.05
2023-03-02T16:09:29.203Z,16.30
2023-03-02T16:11:56.457Z,18.63
2023-03-02T16:14:24.218Z,16.80
2023-03-02T16:16:51.657Z,17.80
2023-03-02T16:19:19.861Z,18.02
2023-03-02T16:21:48.071Z,19.33
2023-03-02T16:24:17.187Z,20.33
2023-03-02T16:26:45.074Z,19.52
2023-03-02T16:29:13.860Z,27.88
2023-03-02T16:31:41.628Z,19.13
2023-03-02T16:34:10.392Z,21.15
2023-03-02T16:36:39.868Z,22.98
2023-03-02T16:39:08.525Z,18.27
2023-03-02T16:41:40.872Z,17.75
2023-03-02T16:44:09.161Z,24.05
2023-03-02T16:46:39.446Z,22.17
2023-03-02T16:49:07.128Z,21.65
2023-03-02T16:51:34.521Z,18.48
2023-03-02T16:54:02.315Z,23.42
2023-03-02T16:56:29.655Z,21.80
2023-03-02T16:58:58.826Z,27.73
2023-03-02T17:01:28.290Z,19.17
2023-03-02T17:03:56.427Z,28.98
2023-03-02T17:06:24.704Z,26.50
2023-03-02T17:08:52.546Z,30.58
2023-03-02T17:11:20.222Z,35.95
2023-03-02T17:13:47.538Z,27.85
2023-03-02T17:16:16.877Z,23.42
2023-03-02T17:18:47.202Z,29.42
2023-03-02T17:21:16.691Z,21.20
2023-03-02T17:23:44.650Z,25.05
2023-03-02T17:26:11.835Z,27.92
2023-03-02T17:28:39.429Z,38.70
2023-03-02T17:31:07.124Z,30.67
2023-03-02T17:33:34.956Z,29.38
2023-03-02T17:36:07.522Z,29.13
2023-03-02T17:38:34.837Z,27.92
2023-03-02T17:41:04.072Z,24.98
2023-03-02T17:43:37.541Z,28.90
2023-03-02T17:46:20.556Z,28.90
2023-03-02T17:48:54.207Z,30.02
2023-03-02T17:51:22.824Z,22.73
2023-03-02T17:53:51.551Z,29.10
2023-03-02T17:56:22.138Z,22.60
2023-03-02T17:58:57.877Z,26.10
2023-03-02T18:01:25.840Z,24.20
2023-03-02T18:03:53.161Z,29.48
2023-03-02T18:06:20.877Z,24.25
2023-03-02T18:08:50.200Z,23.50
2023-03-02T18:11:19.755Z,29.80
2023-03-02T18:13:47.542Z,31.48
2023-03-02T18:16:15.008Z,31.00
2023-03-02T18:18:42.353Z,22.42
2023-03-02T18:21:09.598Z,27.45
2023-03-02T18:23:36.900Z,25.83
2023-03-02T18:26:04.273Z,29.80
2023-03-02T18:28:32.056Z,31.45
2023-03-02T18:31:00.184Z,34.80
2023-03-02T18:33:27.558Z,37.08
2023-03-02T18:35:54.860Z,35.00
2023-03-02T18:38:22.301Z,34.08
2023-03-02T18:40:49.530Z,28.83
2023-03-02T18:43:17.298Z,32.25
2023-03-02T18:45:46.151Z,33.72
2023-03-02T18:48:14.665Z,29.92
2023-03-02T18:50:42.562Z,26.83
2023-03-02T18:53:12.710Z,31.17
2023-03-02T18:55:43.331Z,35.38
2023-03-02T18:58:20.161Z,33.47
2023-03-02T19:00:48.177Z,30.20
2023-03-02T19:03:17.381Z,30.30
2023-03-02T19:05:45.787Z,37.22
2023-03-02T19:08:13.091Z,28.75
2023-03-02T19:10:42.478Z,29.08
2023-03-02T19:13:11.727Z,33.00
2023-03-02T19:15:40.501Z,35.80
2023-03-02T19:18:09.492Z,33.05
2023-03-02T19:20:36.845Z,27.52
2023-03-02T19:23:04.159Z,31.60
2023-03-02T19:25:31.550Z,31.33
2023-03-02T19:27:58.885Z,27.55
2023-03-02T19:30:27.420Z,31.08
2023-03-02T19:32:55.147Z,30.95
2023-03-02T19:35:25.677Z,27.38
2023-03-02T19:37:53.137Z,30.52
2023-03-02T19:40:24.819Z,30.52
2023-03-02T19:42:53.047Z,25.58
2023-03-02T19:45:29.329Z,26.80
2023-03-02T19:47:58.001Z,27.58
2023-03-02T19:50:26.918Z,29.48
2023-03-02T19:52:55.292Z,31.25
2023-03-02T19:55:24.428Z,30.48
2023-03-02T19:57:59.878Z,29.48
2023-03-02T20:00:29.540Z,25.63
2023-03-02T20:02:58.064Z,26.25
2023-03-02T20:05:27.707Z,34.33
2023-03-02T20:07:55.653Z,32.35
2023-03-02T20:10:44.089Z,31.70
2023-03-02T20:13:12.519Z,36.60
2023-03-02T20:15:42.205Z,34.20
2023-03-02T20:18:16.613Z,36.80
2023-03-02T20:20:45.666Z,24.77
2023-03-02T20:23:14.327Z,31.02
2023-03-02T20:25:42.016Z,37.40
2023-03-02T20:28:12.234Z,31.42
2023-03-02T20:30:44.109Z,30.30
2023-03-02T20:33:12.787Z,35.33
2023-03-02T20:35:43.992Z,32.05
2023-03-02T20:38:19.601Z,28.45
2023-03-02T20:40:47.233Z,36.42
2023-03-02T20:43:14.891Z,30.27
2023-03-02T20:45:43.094Z,27.45
2023-03-02T20:48:10.509Z,31.10
2023-03-02T20:50:38.534Z,34.92
2023-03-02T20:53:07.434Z,30.40
2023-03-02T20:55:35.609Z,31.75
2023-03-02T20:58:05.500Z,36.42
2023-03-02T21:00:34.387Z,34.53
2023-03-02T21:03:01.810Z,37.35
2023-03-02T21:05:30.504Z,32.58
2023-03-02T21:07:58.660Z,38.20
2023-03-02T21:10:32.976Z,36.08
2023-03-02T21:13:00.467Z,37.15
2023-03-02T21:15:28.313Z,40.05
2023-03-02T21:17:56.019Z,35.17
2023-03-02T21:20:29.839Z,38.47
2023-03-02T21:22:57.144Z,37.90
2023-03-02T21:25:24.606Z,37.25
2023-03-02T21:27:51.971Z,40.22
2023-03-02T21:30:25.258Z,35.63
2023-03-02T21:32:52.499Z,37.25
2023-03-02T21:35:23.317Z,36.30
2023-03-02T21:37:52.610Z,44.88
2023-03-02T21:40:24.485Z,37.47
2023-03-02T21:42:52.410Z,43.00
2023-03-02T21:45:20.698Z,43.60
2023-03-02T21:47:48.077Z,40.53
2023-03-02T21:50:22.714Z,44.25
2023-03-02T21:52:50.073Z,39.75
2023-03-02T21:55:17.638Z,38.80
2023-03-02T21:57:45.316Z,40.20
2023-03-02T22:00:25.734Z,38.13
2023-03-02T22:02:53.186Z,44.38
2023-03-02T22:05:20.902Z,39.00
2023-03-02T22:07:48.696Z,40.22
2023-03-02T22:10:43.824Z,44.05
2023-03-02T22:13:24.282Z,43.88
2023-03-02T22:16:11.531Z,40.38
2023-03-02T22:18:39.433Z,38.92
2023-03-02T22:21:33.535Z,36.00
2023-03-02T22:24:10.616Z,39.22
2023-03-02T22:26:44.994Z,41.72
2023-03-02T22:29:22.538Z,39.40
2023-03-02T22:31:53.257Z,41.15
2023-03-02T22:34:29.642Z,39.45
2023-03-02T22:37:00.264Z,40.30
2023-03-02T22:39:30.760Z,44.10
2023-03-02T22:42:09.887Z,43.25
2023-03-02T22:44:37.219Z,42.42
2023-03-02T22:47:16.742Z,41.70
2023-03-02T22:49:44.708Z,42.63
2023-03-02T22:52:19.811Z,40.20
2023-03-02T22:54:47.289Z,39.03
2023-03-02T22:57:35.960Z,45.08
2023-03-02T23:00:14.206Z,41.05
2023-03-02T23:02:44.644Z,42.10
2023-03-02T23:05:34.800Z,40.15
2023-03-02T23:08:20.420Z,41.60
2023-03-02T23:10:48.545Z,46.25
2023-03-02T23:13:19.205Z,40.78
2023-03-02T23:15:47.732Z,40.45
2023-03-02T23:18:26.866Z,42.03
2023-03-02T23:20:55.138Z,44.90
2023-03-02T23:23:24.662Z,38.65
2023-03-02T23:25:52.158Z,39.25
2023-03-02T23:28:19.407Z,42.67
2023-03-02T23:30:47.836Z,40.72
2023-03-02T23:33:15.027Z,39.92
2023-03-02T23:35:42.358Z,42.38
2023-03-02T23:38:09.842Z,41.55
2023-03-02T23:40:37.219Z,41.60
2023-03-02T23:43:04.491Z,42.15
2023-03-02T23:45:31.870Z,41.08
2023-03-02T23:47:59.259Z,42.03
2023-03-02T23:50:26.609Z,44.75
2023-03-02T23:52:54.523Z,49.15
2023-03-02T23:55:30.518Z,45.47
2023-03-02T23:57:58.036Z,40.15
